createdAt,value
2018-09-27T00:01:34.568Z,9.50
2018-09-27T00:04:03.374Z,9.40
2018-09-27T00:06:32.575Z,9.40
2018-09-27T00:09:01.565Z,9.30
2018-09-27T00:11:30.430Z,9.30
2018-09-27T00:13:59.244Z,9.30
2018-09-27T00:16:28.037Z,9.30
2018-09-27T00:18:57.134Z,9.30
2018-09-27T00:21:25.916Z,9.30
2018-09-27T00:23:54.704Z,9.30
2018-09-27T00:26:23.540Z,9.30
2018-09-27T00:28:52.358Z,9.30
2018-09-27T00:31:21.167Z,9.30
2018-09-27T00:33:49.964Z,9.30
2018-09-27T00:36:18.999Z,9.30
2018-09-27T00:38:47.797Z,9.30
2018-09-27T00:41:16.615Z,9.20
2018-09-27T00:43:45.566Z,9.30
2018-09-27T00:46:14.353Z,9.20
2018-09-27T00:48:43.114Z,9.10
2018-09-27T00:51:12.044Z,9.10
2018-09-27T00:53:40.783Z,9.10
2018-09-27T00:56:09.610Z,9.00
2018-09-27T00:58:38.360Z,9.00
2018-09-27T01:01:07.260Z,9.00
2018-09-27T01:03:36.015Z,9.00
2018-09-27T01:06:04.791Z,8.90
2018-09-27T01:08:33.556Z,9.00
2018-09-27T01:11:02.454Z,8.90
2018-09-27T01:13:31.263Z,8.90
2018-09-27T01:16:00.140Z,8.90
2018-09-27T01:18:28.947Z,8.80
2018-09-27T01:20:57.727Z,8.80
2018-09-27T01:23:26.531Z,8.80
2018-09-27T01:25:56.411Z,8.80
2018-09-27T01:28:25.200Z,8.80
2018-09-27T01:30:54.307Z,8.80
2018-09-27T01:33:23.255Z,8.80
2018-09-27T01:35:52.036Z,8.90
2018-09-27T01:38:20.896Z,8.90
2018-09-27T01:40:49.822Z,8.90
2018-09-27T01:43:18.598Z,8.90
2018-09-27T01:45:47.395Z,8.90
2018-09-27T01:48:16.231Z,8.90
2018-09-27T01:50:45.032Z,8.90
2018-09-27T01:53:13.808Z,8.90
2018-09-27T01:55:42.635Z,8.80
2018-09-27T01:58:11.410Z,8.80
2018-09-27T02:00:40.374Z,8.80
2018-09-27T02:03:09.220Z,8.80
2018-09-27T02:05:38.022Z,8.70
2018-09-27T02:08:06.811Z,8.70
2018-09-27T02:10:35.597Z,8.60
2018-09-27T02:13:04.376Z,8.60
2018-09-27T02:15:33.159Z,8.60
2018-09-27T02:18:02.098Z,8.60
2018-09-27T02:20:30.840Z,8.60
2018-09-27T02:22:59.648Z,8.60
2018-09-27T02:25:28.486Z,8.50
2018-09-27T02:27:57.284Z,8.50
2018-09-27T02:30:26.097Z,8.50
2018-09-27T02:32:54.879Z,8.50
2018-09-27T02:35:24.386Z,8.50
2018-09-27T02:37:53.184Z,8.50
2018-09-27T02:40:21.984Z,8.50
2018-09-27T02:42:50.791Z,8.40
2018-09-27T02:45:19.580Z,8.30
2018-09-27T02:47:48.563Z,8.40
2018-09-27T02:50:17.332Z,8.40
2018-09-27T02:52:46.105Z,8.40
2018-09-27T02:55:15.040Z,8.40
2018-09-27T02:57:43.804Z,8.40
2018-09-27T03:00:12.644Z,8.40
2018-09-27T03:02:41.465Z,8.40
2018-09-27T03:05:10.247Z,8.40
2018-09-27T03:07:39.079Z,8.40
2018-09-27T03:10:07.885Z,8.30
2018-09-27T03:12:36.687Z,8.30
2018-09-27T03:15:05.648Z,8.30
2018-09-27T03:17:34.409Z,8.30
2018-09-27T03:20:03.278Z,8.30
2018-09-27T03:22:32.100Z,8.30
2018-09-27T03:25:00.915Z,8.30
2018-09-27T03:27:29.692Z,8.30
2018-09-27T03:29:58.554Z,8.30
2018-09-27T03:35:01.600Z,8.20
2018-09-27T03:37:30.380Z,8.20
2018-09-27T03:39:59.277Z,8.20
2018-09-27T03:42:28.021Z,8.20
2018-09-27T03:44:56.793Z,8.10
2018-09-27T03:47:25.616Z,8.10
2018-09-27T03:49:54.711Z,8.00
2018-09-27T03:52:23.480Z,8.00
2018-09-27T03:54:52.251Z,7.90
2018-09-27T03:57:21.071Z,8.00
2018-09-27T03:59:50.383Z,7.90
2018-09-27T04:02:19.190Z,8.00
2018-09-27T04:04:47.995Z,7.90
2018-09-27T04:07:16.829Z,7.90
2018-09-27T04:09:45.632Z,7.90
2018-09-27T04:12:14.401Z,7.90
2018-09-27T04:14:43.226Z,7.90
2018-09-27T04:17:12.019Z,7.90
2018-09-27T04:19:40.860Z,7.90
2018-09-27T04:22:09.693Z,7.90
2018-09-27T04:24:38.479Z,7.90
2018-09-27T04:27:07.260Z,7.90
2018-09-27T04:29:36.123Z,7.90
2018-09-27T04:32:04.928Z,7.90
2018-09-27T04:34:33.737Z,7.80
2018-09-27T04:37:02.995Z,7.80
2018-09-27T04:39:31.800Z,7.80
2018-09-27T04:42:00.592Z,7.70
2018-09-27T04:44:29.375Z,7.70
2018-09-27T04:46:58.188Z,7.70
2018-09-27T04:49:26.973Z,7.70
2018-09-27T04:51:56.168Z,7.70
2018-09-27T04:54:24.882Z,7.70
2018-09-27T04:56:53.703Z,7.70
2018-09-27T04:59:22.543Z,7.70
2018-09-27T05:01:51.383Z,7.70
2018-09-27T05:04:21.313Z,7.80
2018-09-27T05:06:50.124Z,7.80
2018-09-27T05:09:19.090Z,7.80
2018-09-27T05:11:47.922Z,7.80
2018-09-27T05:14:16.808Z,7.80
2018-09-27T05:16:46.135Z,7.80
2018-09-27T05:19:14.962Z,7.80
2018-09-27T05:21:43.828Z,7.70
2018-09-27T05:24:12.623Z,7.70
2018-09-27T05:26:41.444Z,7.70
2018-09-27T05:29:10.255Z,7.60
2018-09-27T05:31:39.092Z,7.60
2018-09-27T05:34:07.884Z,7.60
2018-09-27T05:36:36.715Z,7.60
2018-09-27T05:39:06.773Z,7.60
2018-09-27T05:41:35.728Z,7.70
2018-09-27T05:44:04.636Z,7.70
2018-09-27T05:46:33.634Z,7.70
2018-09-27T05:49:02.539Z,7.70
2018-09-27T05:51:31.397Z,7.70
2018-09-27T05:54:00.275Z,7.70
2018-09-27T05:56:29.193Z,7.80
2018-09-27T05:58:58.058Z,7.80
2018-09-27T06:01:26.912Z,7.90
2018-09-27T06:03:56.699Z,7.90
2018-09-27T06:06:25.573Z,7.80
2018-09-27T06:08:54.427Z,7.80
2018-09-27T06:11:23.305Z,7.80
2018-09-27T06:13:52.153Z,7.80
2018-09-27T06:16:21.190Z,7.80
2018-09-27T06:18:50.074Z,7.90
2018-09-27T06:21:19.004Z,7.90
2018-09-27T06:23:47.865Z,7.90
2018-09-27T06:26:16.734Z,8.00
2018-09-27T06:28:45.580Z,8.00
2018-09-27T06:31:14.540Z,8.10
2018-09-27T06:33:43.419Z,8.10
2018-09-27T06:36:12.219Z,8.10
2018-09-27T06:38:41.279Z,8.20
2018-09-27T06:41:10.154Z,8.20
2018-09-27T06:43:39.108Z,8.30
2018-09-27T06:46:07.935Z,8.40
2018-09-27T06:48:36.809Z,8.50
2018-09-27T06:51:05.639Z,8.60
2018-09-27T06:53:34.615Z,8.70
2018-09-27T06:56:03.485Z,8.90
2018-09-27T06:58:32.266Z,9.00
2018-09-27T07:01:01.244Z,9.10
2018-09-27T07:03:29.995Z,9.20
2018-09-27T07:05:58.852Z,9.30
2018-09-27T07:08:27.900Z,9.50
2018-09-27T07:10:56.731Z,9.60
2018-09-27T07:13:25.587Z,9.60
2018-09-27T07:15:54.415Z,9.70
2018-09-27T07:18:24.032Z,9.80
2018-09-27T07:20:52.884Z,9.90
2018-09-27T07:23:21.783Z,10.00
2018-09-27T07:25:50.648Z,10.00
2018-09-27T07:28:19.464Z,10.20
2018-09-27T07:30:48.363Z,10.30
2018-09-27T07:33:17.347Z,10.40
2018-09-27T07:35:46.182Z,10.50
2018-09-27T07:38:19.340Z,10.60
2018-09-27T07:40:48.779Z,10.80
2018-09-27T07:43:17.659Z,10.90
2018-09-27T07:45:46.660Z,11.10
2018-09-27T07:48:15.571Z,11.20
2018-09-27T07:50:44.686Z,11.30
2018-09-27T07:53:13.550Z,11.30
2018-09-27T07:55:42.424Z,11.40
2018-09-27T07:58:11.452Z,11.50
2018-09-27T08:00:53.935Z,11.60
2018-09-27T08:03:22.799Z,11.60
2018-09-27T08:05:51.674Z,11.70
2018-09-27T08:08:20.569Z,11.70
2018-09-27T08:10:49.411Z,11.80
2018-09-27T08:13:18.278Z,11.90
2018-09-27T08:15:47.154Z,11.90
2018-09-27T08:18:15.986Z,12.00
2018-09-27T08:20:45.029Z,12.10
2018-09-27T08:23:13.723Z,12.10
2018-09-27T08:25:42.591Z,12.30
2018-09-27T08:28:11.514Z,12.40
2018-09-27T08:30:41.816Z,12.60
2018-09-27T08:33:10.786Z,12.70
2018-09-27T08:35:39.788Z,12.80
2018-09-27T08:38:08.822Z,12.90
2018-09-27T08:40:40.469Z,13.00
2018-09-27T08:43:09.708Z,13.10
2018-09-27T08:45:38.683Z,13.20
2018-09-27T08:48:07.454Z,13.30
2018-09-27T08:50:36.334Z,13.40
2018-09-27T08:53:05.191Z,13.60
2018-09-27T08:55:34.162Z,13.60
2018-09-27T08:58:02.971Z,13.70
2018-09-27T09:00:31.867Z,13.80
2018-09-27T09:03:00.759Z,13.90
2018-09-27T09:05:29.629Z,14.10
2018-09-27T09:07:58.789Z,14.20
2018-09-27T09:10:27.693Z,14.30
2018-09-27T09:12:56.524Z,14.50
2018-09-27T09:15:25.475Z,14.70
2018-09-27T09:17:54.285Z,14.70
2018-09-27T09:20:44.584Z,14.90
2018-09-27T09:23:13.754Z,15.00
2018-09-27T09:25:42.675Z,15.80
2018-09-27T09:28:11.545Z,16.60
2018-09-27T09:30:40.395Z,17.10
2018-09-27T09:33:09.439Z,17.80
2018-09-27T09:35:38.415Z,18.10
2018-09-27T09:38:07.343Z,18.40
2018-09-27T09:40:37.064Z,18.80
2018-09-27T09:43:06.063Z,18.90
2018-09-27T09:45:34.911Z,19.00
2018-09-27T09:48:04.414Z,19.00
2018-09-27T09:50:33.308Z,19.10
2018-09-27T09:53:02.153Z,19.20
2018-09-27T09:55:31.371Z,19.40
2018-09-27T09:58:01.148Z,19.40
2018-09-27T10:00:29.972Z,19.50
2018-09-27T10:02:58.823Z,19.40
2018-09-27T10:05:27.671Z,19.50
2018-09-27T10:07:56.724Z,19.40
2018-09-27T10:10:25.569Z,19.30
2018-09-27T10:12:54.451Z,19.20
2018-09-27T10:15:23.400Z,19.20
2018-09-27T10:17:52.267Z,19.10
2018-09-27T10:20:21.123Z,19.10
2018-09-27T10:22:50.021Z,19.00
2018-09-27T10:25:18.867Z,19.00
2018-09-27T10:27:47.975Z,19.10
2018-09-27T10:30:16.958Z,19.10
2018-09-27T10:32:45.813Z,19.10
2018-09-27T10:35:14.820Z,19.10
2018-09-27T10:37:43.654Z,19.20
2018-09-27T10:40:12.475Z,19.20
2018-09-27T10:42:41.349Z,19.30
2018-09-27T10:45:10.224Z,19.40
2018-09-27T10:47:39.032Z,19.40
2018-09-27T10:50:09.970Z,19.50
2018-09-27T10:52:38.784Z,19.60
2018-09-27T10:55:07.606Z,19.60
2018-09-27T10:57:36.440Z,19.70
2018-09-27T11:00:05.296Z,19.80
2018-09-27T11:02:34.129Z,19.90
2018-09-27T11:05:03.047Z,19.90
2018-09-27T11:07:31.881Z,20.00
2018-09-27T11:10:00.675Z,20.10
2018-09-27T11:12:29.547Z,20.10
2018-09-27T11:14:58.593Z,20.30
2018-09-27T11:17:27.415Z,20.40
2018-09-27T11:19:59.952Z,20.50
2018-09-27T11:22:28.736Z,20.70
2018-09-27T11:24:57.524Z,21.00
2018-09-27T11:27:26.462Z,21.20
2018-09-27T11:30:00.866Z,21.30
2018-09-27T11:32:31.184Z,21.30
2018-09-27T11:35:00.301Z,21.60
2018-09-27T11:37:29.227Z,21.70
2018-09-27T11:39:58.067Z,21.90
2018-09-27T11:42:26.982Z,22.10
2018-09-27T11:44:55.744Z,22.30
2018-09-27T11:47:24.560Z,22.50
2018-09-27T11:49:53.479Z,22.50
2018-09-27T11:52:22.168Z,22.60
2018-09-27T11:54:51.034Z,23.00
2018-09-27T11:57:20.092Z,23.10
2018-09-27T11:59:48.956Z,23.20
2018-09-27T12:02:17.774Z,23.20
2018-09-27T12:04:46.612Z,23.20
2018-09-27T12:07:15.424Z,23.20
2018-09-27T12:09:44.224Z,23.30
2018-09-27T12:12:13.141Z,23.60
2018-09-27T12:14:42.090Z,23.60
2018-09-27T12:17:10.868Z,23.70
2018-09-27T12:19:39.831Z,23.60
2018-09-27T12:22:08.859Z,23.60
2018-09-27T12:24:37.658Z,23.70
2018-09-27T12:27:06.439Z,23.80
2018-09-27T12:29:35.268Z,24.10
2018-09-27T12:32:04.113Z,24.50
2018-09-27T12:34:33.244Z,24.60
2018-09-27T12:37:02.047Z,24.50
2018-09-27T12:39:30.944Z,24.60
2018-09-27T12:41:59.839Z,24.50
2018-09-27T12:44:28.563Z,24.60
2018-09-27T12:46:57.497Z,24.60
2018-09-27T12:49:26.180Z,24.60
2018-09-27T12:51:55.499Z,24.80
2018-09-27T12:54:24.237Z,24.80
2018-09-27T12:56:53.120Z,24.80
2018-09-27T12:59:21.957Z,24.70
2018-09-27T13:01:50.929Z,24.90
2018-09-27T13:04:19.748Z,24.90
2018-09-27T13:06:48.524Z,25.10
2018-09-27T13:09:17.514Z,25.30
2018-09-27T13:11:46.213Z,25.30
2018-09-27T13:14:15.011Z,25.40
2018-09-27T13:16:43.839Z,25.50
2018-09-27T13:19:12.765Z,25.50
2018-09-27T13:21:41.663Z,26.00
2018-09-27T13:24:10.444Z,26.20
2018-09-27T13:26:39.293Z,26.40
2018-09-27T13:29:08.056Z,26.40
2018-09-27T13:31:36.891Z,26.50
2018-09-27T13:34:05.921Z,26.70
2018-09-27T13:36:34.708Z,26.60
2018-09-27T13:39:04.496Z,26.60
2018-09-27T13:41:33.271Z,26.70
2018-09-27T13:44:02.100Z,26.50
2018-09-27T13:46:31.036Z,26.60
2018-09-27T13:48:59.856Z,27.00
2018-09-27T13:51:28.635Z,26.90
2018-09-27T13:53:57.457Z,27.10
2018-09-27T13:56:26.299Z,27.30
2018-09-27T13:58:55.149Z,27.40
2018-09-27T14:01:23.928Z,27.30
2018-09-27T14:03:52.750Z,27.50
2018-09-27T14:06:21.681Z,27.30
2018-09-27T14:08:50.508Z,26.90
2018-09-27T14:11:19.376Z,26.90
2018-09-27T14:13:48.188Z,26.80
2018-09-27T14:16:16.991Z,26.70
2018-09-27T14:18:45.888Z,26.80
2018-09-27T14:21:14.909Z,26.50
2018-09-27T14:23:43.740Z,26.40
2018-09-27T14:26:12.644Z,26.20
2018-09-27T14:28:41.586Z,26.20
2018-09-27T14:31:10.527Z,26.30
2018-09-27T14:33:39.440Z,26.40
2018-09-27T14:36:08.295Z,26.60
2018-09-27T14:38:37.119Z,26.60
2018-09-27T14:41:06.058Z,26.50
2018-09-27T14:43:34.783Z,26.70
2018-09-27T14:46:03.740Z,26.70
2018-09-27T14:48:32.544Z,26.80
2018-09-27T14:51:01.408Z,26.60
2018-09-27T14:53:32.423Z,26.80
2018-09-27T14:56:01.341Z,26.80
2018-09-27T14:58:30.191Z,26.80
2018-09-27T15:00:59.091Z,27.00
2018-09-27T15:03:28.012Z,26.60
2018-09-27T15:05:56.928Z,26.40
2018-09-27T15:08:26.493Z,26.40
2018-09-27T15:10:55.446Z,26.60
2018-09-27T15:13:24.290Z,26.60
2018-09-27T15:15:53.253Z,26.50
2018-09-27T15:18:22.594Z,26.50
2018-09-27T15:20:51.621Z,26.70
2018-09-27T15:23:20.671Z,26.70
2018-09-27T15:25:49.523Z,26.70
2018-09-27T15:28:18.598Z,26.70
2018-09-27T15:30:48.276Z,26.60
2018-09-27T15:33:16.277Z,26.60
2018-09-27T15:35:45.878Z,26.50
2018-09-27T15:38:15.007Z,26.50
2018-09-27T15:40:43.828Z,26.50
2018-09-27T15:43:12.753Z,26.40
2018-09-27T15:45:41.665Z,26.20
2018-09-27T15:48:10.463Z,26.00
2018-09-27T15:50:39.286Z,26.10
2018-09-27T15:53:08.233Z,25.90
2018-09-27T15:55:37.448Z,25.80
2018-09-27T15:58:06.287Z,25.60
2018-09-27T16:00:35.092Z,25.40
2018-09-27T16:03:03.966Z,25.20
2018-09-27T16:05:32.937Z,24.80
2018-09-27T16:08:01.931Z,24.60
2018-09-27T16:10:31.071Z,24.40
2018-09-27T16:12:59.949Z,24.20
2018-09-27T16:15:28.843Z,24.00
2018-09-27T16:17:57.884Z,23.80
2018-09-27T16:20:26.775Z,23.80
2018-09-27T16:22:55.609Z,23.50
2018-09-27T16:25:24.621Z,23.20
2018-09-27T16:27:53.640Z,23.10
2018-09-27T16:30:30.069Z,22.80
2018-09-27T16:33:01.630Z,22.40
2018-09-27T16:35:44.943Z,22.20
2018-09-27T16:38:14.929Z,21.90
2018-09-27T16:40:43.955Z,21.80
2018-09-27T16:43:12.951Z,21.50
2018-09-27T16:45:42.213Z,21.40
2018-09-27T16:48:11.488Z,21.00
2018-09-27T16:50:40.489Z,20.60
2018-09-27T16:53:09.325Z,20.50
2018-09-27T16:55:38.391Z,20.40
2018-09-27T16:58:07.368Z,20.40
2018-09-27T17:00:36.524Z,20.20
2018-09-27T17:03:05.664Z,20.10
2018-09-27T17:05:34.737Z,19.90
2018-09-27T17:08:03.630Z,19.70
2018-09-27T17:10:32.547Z,19.40
2018-09-27T17:13:01.475Z,19.10
2018-09-27T17:15:30.493Z,18.90
2018-09-27T17:17:59.452Z,18.90
2018-09-27T17:20:28.337Z,18.70
2018-09-27T17:22:57.297Z,18.60
2018-09-27T17:25:26.256Z,18.60
2018-09-27T17:27:55.248Z,18.60
2018-09-27T17:30:24.141Z,18.50
2018-09-27T17:32:52.957Z,18.40
2018-09-27T17:35:21.800Z,18.30
2018-09-27T17:37:50.651Z,18.10
2018-09-27T17:40:19.612Z,18.00
2018-09-27T17:42:48.401Z,18.00
2018-09-27T17:45:17.445Z,17.90
2018-09-27T17:47:46.425Z,17.80
2018-09-27T17:50:15.257Z,17.60
2018-09-27T17:52:48.210Z,17.60
2018-09-27T17:55:20.160Z,17.50
2018-09-27T17:57:50.123Z,17.40
2018-09-27T18:00:19.594Z,17.30
2018-09-27T18:02:49.489Z,17.20
2018-09-27T18:05:19.559Z,17.10
2018-09-27T18:07:48.078Z,17.10
2018-09-27T18:10:17.067Z,17.10
2018-09-27T18:12:47.076Z,17.00
2018-09-27T18:15:15.884Z,17.00
2018-09-27T18:17:44.813Z,17.10
2018-09-27T18:20:13.760Z,17.10
2018-09-27T18:22:42.718Z,17.00
2018-09-27T18:25:11.563Z,16.90
2018-09-27T18:27:40.380Z,16.80
2018-09-27T18:30:09.402Z,16.70
2018-09-27T18:32:38.290Z,16.60
2018-09-27T18:35:07.084Z,16.50
2018-09-27T18:37:35.937Z,16.50
2018-09-27T18:40:05.416Z,16.40
2018-09-27T18:42:34.188Z,16.30
2018-09-27T18:45:03.360Z,16.20
2018-09-27T18:47:32.248Z,16.20
2018-09-27T18:50:01.083Z,16.20
2018-09-27T18:52:30.668Z,16.00
2018-09-27T18:54:59.796Z,15.90
2018-09-27T18:57:28.752Z,15.90
2018-09-27T18:59:58.814Z,15.90
2018-09-27T19:02:27.744Z,15.80
2018-09-27T19:05:01.301Z,15.70
2018-09-27T19:07:31.901Z,15.70
2018-09-27T19:10:03.447Z,15.60
2018-09-27T19:12:45.067Z,15.60
2018-09-27T19:15:33.310Z,15.50
2018-09-27T19:18:21.658Z,15.50
2018-09-27T19:20:51.916Z,15.40
2018-09-27T19:23:21.405Z,15.30
2018-09-27T19:25:51.404Z,15.20
2018-09-27T19:34:27.609Z,15.10
2018-09-27T19:37:07.233Z,15.10
2018-09-27T19:39:39.416Z,14.90
2018-09-27T19:42:10.671Z,14.80
2018-09-27T19:44:39.999Z,14.90
2018-09-27T19:47:10.658Z,14.80
2018-09-27T19:49:40.123Z,14.70
2018-09-27T19:52:09.934Z,14.70
2018-09-27T19:54:40.173Z,14.70
2018-09-27T19:57:09.195Z,14.60
2018-09-27T19:59:38.506Z,14.40
2018-09-27T20:02:08.199Z,14.40
2018-09-27T20:04:37.444Z,14.40
2018-09-27T20:07:06.714Z,14.40
2018-09-27T20:09:35.752Z,14.30
2018-09-27T20:12:06.397Z,14.20
2018-09-27T20:14:35.671Z,14.20
2018-09-27T20:17:09.551Z,14.10
2018-09-27T20:19:38.499Z,14.10
2018-09-27T20:22:09.722Z,14.10
2018-09-27T20:24:39.201Z,14.00
2018-09-27T20:27:09.752Z,14.00
2018-09-27T20:29:40.509Z,13.90
2018-09-27T20:32:09.607Z,13.80
2018-09-27T20:34:38.725Z,13.70
2018-09-27T20:37:08.525Z,13.70
2018-09-27T20:39:37.493Z,13.60
2018-09-27T20:42:06.413Z,13.60
2018-09-27T20:44:35.219Z,13.60
2018-09-27T20:47:04.081Z,13.50
2018-09-27T20:49:33.600Z,13.50
2018-09-27T20:52:02.549Z,13.50
2018-09-27T20:54:31.619Z,13.50
2018-09-27T20:57:00.521Z,13.50
2018-09-27T20:59:30.272Z,13.50
2018-09-27T21:01:59.572Z,13.40
2018-09-27T21:04:29.753Z,13.40
2018-09-27T21:06:58.795Z,13.30
2018-09-27T21:09:27.689Z,13.30
2018-09-27T21:11:58.966Z,13.30
2018-09-27T21:14:30.187Z,13.20
2018-09-27T21:17:00.460Z,13.10
2018-09-27T21:19:29.843Z,13.00
2018-09-27T21:21:58.705Z,12.90
2018-09-27T21:24:30.231Z,12.90
2018-09-27T21:27:00.683Z,12.90
2018-09-27T21:29:30.784Z,12.90
2018-09-27T21:32:01.650Z,12.90
2018-09-27T21:34:30.715Z,12.80
2018-09-27T21:36:59.530Z,12.70
2018-09-27T21:39:28.730Z,12.70
2018-09-27T21:41:57.660Z,12.70
2018-09-27T21:44:26.652Z,12.60
2018-09-27T21:46:55.530Z,12.60
2018-09-27T21:49:24.401Z,12.60
2018-09-27T21:51:53.334Z,12.60
2018-09-27T21:54:22.196Z,12.60
2018-09-27T21:56:51.029Z,12.60
2018-09-27T21:59:19.960Z,12.60
2018-09-27T22:01:48.908Z,12.60
2018-09-27T22:04:17.868Z,12.60
2018-09-27T22:06:48.098Z,12.50
2018-09-27T22:09:16.989Z,12.50
2018-09-27T22:11:45.932Z,12.40
2018-09-27T22:14:14.828Z,12.40
2018-09-27T22:16:43.807Z,12.30
2018-09-27T22:19:12.619Z,12.30
2018-09-27T22:21:41.464Z,12.30
2018-09-27T22:24:10.593Z,12.30
2018-09-27T22:26:40.784Z,12.20
2018-09-27T22:29:10.627Z,12.10
2018-09-27T22:31:39.487Z,12.20
2018-09-27T22:34:08.296Z,12.20
2018-09-27T22:36:37.168Z,12.30
2018-09-27T22:39:09.503Z,12.20
2018-09-27T22:41:38.337Z,12.10
2018-09-27T22:44:07.312Z,12.10
2018-09-27T22:46:36.229Z,12.10
2018-09-27T22:49:09.982Z,12.10
2018-09-27T22:51:38.794Z,12.00
2018-09-27T22:54:07.842Z,12.00
2018-09-27T22:56:36.677Z,12.00
2018-09-27T22:59:06.616Z,12.00
2018-09-27T23:01:35.493Z,12.00
2018-09-27T23:04:04.447Z,11.90
2018-09-27T23:06:33.317Z,11.90
2018-09-27T23:09:02.233Z,11.80
2018-09-27T23:11:32.631Z,11.80
2018-09-27T23:14:02.904Z,11.80
2018-09-27T23:16:31.756Z,11.80
2018-09-27T23:19:00.634Z,11.70
2018-09-27T23:21:30.667Z,11.70
2018-09-27T23:24:05.433Z,11.70
2018-09-27T23:26:34.220Z,11.60
2018-09-27T23:29:03.102Z,11.60
2018-09-27T23:31:31.882Z,11.50
2018-09-27T23:34:00.708Z,11.50
2018-09-27T23:36:33.139Z,11.50
2018-09-27T23:39:01.951Z,11.50
2018-09-27T23:41:30.755Z,11.50
2018-09-27T23:43:59.594Z,11.50
2018-09-27T23:46:28.401Z,11.40
2018-09-27T23:48:58.391Z,11.50
2018-09-27T23:51:27.545Z,11.50
2018-09-27T23:53:56.428Z,11.50
2018-09-27T23:56:25.240Z,11.50
2018-09-27T23:58:54.086Z,11.50
